Time;durP1;ratioP1;P1;durP2;ratioP2;P2;SDS_P1;SDS_P2;PMS_P1;PMS_P2;Temp;Humidity;BMP_temperature;BMP_pressure;BME280_temperature;BME280_humidity;BME280_pressure;Samples;Min_cycle;Max_cycle;Signal;HPM_P1;HPM_P2
2023/07/05 00:00:25;;;;;;;39.43;18.80;;;;;;;17.26;63.01;100150.69;4214899;28;20521;-67
2023/07/05 00:02:52;;;;;;;37.23;19.00;;;;;;;17.20;63.13;100148.78;4218184;28;20277;-67
2023/07/05 00:05:20;;;;;;;35.20;19.30;;;;;;;17.20;63.04;100150.63;4207659;28;20303;-67
2023/07/05 00:07:47;;;;;;;37.37;20.47;;;;;;;17.20;63.08;100153.38;4206956;28;20631;-68
2023/07/05 00:10:14;;;;;;;33.10;18.77;;;;;;;17.25;62.52;100153.66;4231874;28;21968;-66
2023/07/05 00:12:40;;;;;;;37.87;20.27;;;;;;;17.25;62.39;100157.22;4207483;28;20228;-66
2023/07/05 00:15:07;;;;;;;35.80;18.43;;;;;;;17.27;62.15;100151.53;4198140;28;20307;-68
2023/07/05 00:17:35;;;;;;;36.17;17.40;;;;;;;17.27;62.09;100157.00;4188304;28;20230;-67
2023/07/05 00:20:04;;;;;;;36.33;18.60;;;;;;;17.18;62.93;100159.06;4212432;28;20242;-67
2023/07/05 00:22:31;;;;;;;32.47;17.90;;;;;;;17.03;63.25;100153.66;4204778;28;20232;-65
2023/07/05 00:24:57;;;;;;;30.13;16.30;;;;;;;17.01;62.97;100155.75;4213739;28;20232;-66
2023/07/05 00:27:24;;;;;;;38.70;19.50;;;;;;;16.99;62.54;100149.63;4208068;28;20267;-67
2023/07/05 00:29:53;;;;;;;33.27;17.97;;;;;;;17.09;62.45;100155.63;4209991;28;20703;-67
2023/07/05 00:32:20;;;;;;;35.93;17.87;;;;;;;17.11;61.78;100153.50;4215875;28;20300;-68
2023/07/05 00:34:47;;;;;;;39.73;20.03;;;;;;;17.05;62.43;100148.00;4206128;28;20235;-66
2023/07/05 00:37:14;;;;;;;34.27;18.67;;;;;;;16.95;63.27;100149.19;4211864;28;20227;-68
2023/07/05 00:39:41;;;;;;;30.33;17.17;;;;;;;16.78;63.94;100156.78;4212412;28;20315;-67
2023/07/05 00:42:07;;;;;;;31.53;17.50;;;;;;;16.72;63.48;100141.16;4225875;28;20235;-66
2023/07/05 00:44:34;;;;;;;34.23;17.77;;;;;;;16.78;63.17;100150.44;4209778;28;20300;-65
2023/07/05 00:47:11;;;;;;;33.00;17.17;;;;;;;16.82;62.51;100150.91;4208777;28;20235;-66
2023/07/05 00:49:38;;;;;;;39.67;19.67;;;;;;;16.79;63.14;100147.53;4215310;28;20269;-67
2023/07/05 00:52:10;;;;;;;36.90;18.70;;;;;;;16.68;63.35;100153.50;4209888;28;20227;-69
2023/07/05 00:54:42;;;;;;;37.00;18.27;;;;;;;16.73;62.98;100147.47;4214935;28;21627;-67
2023/07/05 00:57:40;;;;;;;34.20;18.50;;;;;;;16.72;63.48;100153.97;4203968;28;20337;-66
2023/07/05 01:00:12;;;;;;;34.03;17.63;;;;;;;16.68;63.70;100155.41;4237156;28;20232;-66
2023/07/05 01:02:40;;;;;;;33.73;17.70;;;;;;;16.60;63.78;100153.63;4229837;28;20239;-66
2023/07/05 01:05:10;;;;;;;34.57;18.83;;;;;;;16.58;63.74;100152.97;4202969;28;24973;-66
2023/07/05 01:07:37;;;;;;;32.80;16.40;;;;;;;16.60;63.10;100148.16;4210704;28;20242;-66
2023/07/05 01:10:04;;;;;;;36.23;16.87;;;;;;;16.62;62.93;100152.41;4196821;28;20269;-67
2023/07/05 01:12:35;;;;;;;29.10;15.83;;;;;;;16.61;62.91;100156.19;4224272;28;25362;-66
2023/07/05 01:15:14;;;;;;;31.43;16.97;;;;;;;16.62;62.80;100154.28;4205583;28;20235;-67
2023/07/05 01:18:03;;;;;;;32.17;16.40;;;;;;;16.47;63.18;100154.34;4202500;28;22131;-65
2023/07/05 01:20:49;;;;;;;32.37;17.43;;;;;;;16.63;63.31;100154.09;4223454;28;20234;-66
2023/07/05 01:23:25;;;;;;;29.57;16.40;;;;;;;16.42;64.12;100151.34;4217893;28;20243;-67
2023/07/05 01:26:03;;;;;;;30.37;16.57;;;;;;;16.40;64.10;100151.53;4217062;28;20346;-66
2023/07/05 01:28:36;;;;;;;35.27;16.90;;;;;;;16.26;64.66;100149.69;4219924;28;21614;-65
2023/07/05 01:31:41;;;;;;;34.23;16.40;;;;;;;16.20;65.32;100145.00;4216582;28;20236;-67
2023/07/05 01:34:27;;;;;;;32.33;16.70;;;;;;;16.10;65.70;100156.22;4216924;28;20366;-66
2023/07/05 01:36:56;;;;;;;29.93;15.57;;;;;;;16.08;65.68;100155.56;4212891;28;21147;-67
2023/07/05 01:39:22;;;;;;;34.60;17.50;;;;;;;16.08;64.58;100147.38;4201895;28;20239;-66
2023/07/05 01:41:49;;;;;;;30.40;15.43;;;;;;;16.13;63.95;100144.91;4204387;28;21167;-67
2023/07/05 01:44:16;;;;;;;31.03;16.33;;;;;;;16.12;64.67;100135.03;4211508;28;21124;-67
2023/07/05 01:47:01;;;;;;;35.73;16.27;;;;;;;16.00;63.95;100145.59;4220694;28;20234;-66
2023/07/05 01:50:03;;;;;;;33.07;16.67;;;;;;;15.92;64.36;100149.28;4215592;28;20239;-66
2023/07/05 01:52:43;;;;;;;31.63;16.23;;;;;;;15.83;64.36;100147.69;4231225;28;23225;-66
2023/07/05 01:55:13;;;;;;;32.57;16.37;;;;;;;15.85;63.98;100142.88;4216264;28;20311;-65
2023/07/05 01:57:55;;;;;;;32.50;16.13;;;;;;;15.91;64.02;100150.31;4217437;28;22883;-66
2023/07/05 02:00:23;;;;;;;29.10;15.13;;;;;;;15.92;64.17;100151.16;4198400;28;21448;-65
2023/07/05 02:03:11;;;;;;;31.33;15.63;;;;;;;16.01;64.35;100152.75;4203324;28;21784;-66
2023/07/05 02:05:38;;;;;;;29.53;15.57;;;;;;;15.96;64.31;100144.28;4214547;28;20835;-66
2023/07/05 02:08:05;;;;;;;33.70;16.00;;;;;;;15.85;64.66;100142.88;4219003;28;25852;-66
2023/07/05 02:10:32;;;;;;;28.40;15.33;;;;;;;15.75;64.85;100148.56;4222922;28;22118;-66
2023/07/05 02:13:03;;;;;;;29.57;16.37;;;;;;;15.64;65.41;100149.91;4210134;28;20240;-66
2023/07/05 02:15:30;;;;;;;28.03;14.67;;;;;;;15.61;65.47;100144.84;4222492;28;21217;-65
2023/07/05 02:17:57;;;;;;;32.27;15.83;;;;;;;15.62;65.87;100146.53;4206781;28;20326;-67
2023/07/05 02:20:23;;;;;;;32.17;16.10;;;;;;;15.65;66.01;100154.31;4207765;28;25392;-64
2023/07/05 02:22:50;;;;;;;32.77;15.93;;;;;;;15.61;66.37;100157.63;4215453;28;20501;-67
2023/07/05 02:25:16;;;;;;;32.13;16.37;;;;;;;15.63;66.20;100161.88;4203014;28;20235;-65
2023/07/05 02:27:43;;;;;;;37.87;16.70;;;;;;;15.67;66.12;100167.81;4223507;28;20293;-66
2023/07/05 02:30:10;;;;;;;28.33;15.37;;;;;;;15.67;66.46;100160.44;4219808;28;21970;-66
2023/07/05 02:32:37;;;;;;;31.13;15.47;;;;;;;15.64;66.35;100166.28;4217231;28;21273;-65
2023/07/05 02:35:04;;;;;;;30.90;15.87;;;;;;;15.62;66.66;100167.50;4215505;28;20231;-66
2023/07/05 02:37:34;;;;;;;30.57;15.10;;;;;;;15.59;66.98;100178.81;4224699;28;20227;-67
2023/07/05 02:40:01;;;;;;;36.07;16.47;;;;;;;15.65;66.74;100178.06;4223447;28;25607;-66
2023/07/05 02:42:28;;;;;;;30.23;16.03;;;;;;;15.66;66.76;100185.19;4213895;28;20249;-66
2023/07/05 02:44:55;;;;;;;29.00;15.43;;;;;;;15.60;66.96;100181.34;4217208;28;21689;-66
2023/07/05 02:47:22;;;;;;;26.03;15.23;;;;;;;15.57;67.19;100183.59;4213928;28;21104;-66
2023/07/05 02:49:49;;;;;;;30.70;16.13;;;;;;;15.55;67.27;100181.06;4218712;28;22155;-65
2023/07/05 02:52:16;;;;;;;30.53;16.30;;;;;;;15.53;67.42;100189.41;4229160;28;21651;-66
2023/07/05 02:54:43;;;;;;;27.93;15.50;;;;;;;15.50;67.90;100184.34;4210486;28;20227;-66
2023/07/05 02:57:09;;;;;;;26.93;14.87;;;;;;;15.63;67.15;100183.72;4237300;28;21095;-64
2023/07/05 02:59:36;;;;;;;30.00;14.83;;;;;;;15.71;66.95;100181.91;4235433;28;20241;-66
2023/07/05 03:02:03;;;;;;;31.00;14.90;;;;;;;15.77;66.79;100178.44;4230908;28;21050;-67
2023/07/05 03:04:30;;;;;;;29.93;14.20;;;;;;;15.89;66.15;100189.75;4249825;28;20336;-65
2023/07/05 03:06:57;;;;;;;36.87;18.03;;;;;;;15.93;66.25;100183.75;4242488;28;21523;-64
2023/07/05 03:09:24;;;;;;;31.73;16.37;;;;;;;15.96;66.38;100175.16;4236238;28;20240;-66
2023/07/05 03:11:51;;;;;;;29.73;14.53;;;;;;;16.03;65.91;100177.97;4235313;28;22352;-66
2023/07/05 03:14:17;;;;;;;29.83;14.17;;;;;;;16.10;65.65;100178.91;4260248;28;22356;-66
2023/07/05 03:16:44;;;;;;;28.70;14.30;;;;;;;16.18;65.54;100180.69;4218309;28;20316;-67
2023/07/05 03:19:11;;;;;;;29.27;14.30;;;;;;;16.26;65.09;100177.84;4220163;28;21207;-66
2023/07/05 03:21:38;;;;;;;27.23;13.53;;;;;;;16.36;64.54;100182.16;4226094;28;20261;-66
2023/07/05 03:24:05;;;;;;;27.57;13.23;;;;;;;16.41;64.31;100176.97;4221420;28;21605;-66
2023/07/05 03:26:31;;;;;;;32.67;13.73;;;;;;;16.53;64.23;100185.50;4235092;28;20234;-65
2023/07/05 03:28:58;;;;;;;25.00;12.87;;;;;;;16.58;64.15;100183.91;4228778;28;20768;-66
2023/07/05 03:31:25;;;;;;;28.57;13.93;;;;;;;16.60;64.05;100187.28;4222534;28;20699;-66
2023/07/05 03:33:53;;;;;;;27.17;13.87;;;;;;;16.62;63.98;100185.19;4218631;28;20237;-66
2023/07/05 03:36:21;;;;;;;32.73;14.17;;;;;;;16.65;63.96;100183.97;4226943;28;20593;-66
2023/07/05 03:38:53;;;;;;;32.37;13.03;;;;;;;16.84;63.11;100179.75;4211353;28;20413;-65
2023/07/05 03:41:22;;;;;;;31.73;14.73;;;;;;;16.97;62.89;100192.72;4207925;28;21554;-66
2023/07/05 03:43:56;;;;;;;34.20;14.07;;;;;;;17.09;62.79;100188.44;4220231;28;20583;-66
2023/07/05 03:46:23;;;;;;;26.80;13.50;;;;;;;17.18;61.98;100191.88;4222315;28;20234;-67
2023/07/05 03:48:50;;;;;;;31.10;13.80;;;;;;;17.21;62.18;100196.97;4198259;28;20370;-67
2023/07/05 03:51:20;;;;;;;31.60;12.83;;;;;;;17.33;61.98;100193.69;4210987;28;20243;-65
2023/07/05 03:53:55;;;;;;;31.10;13.60;;;;;;;17.48;61.08;100202.63;4222572;28;21175;-66
2023/07/05 03:56:22;;;;;;;30.13;14.20;;;;;;;17.60;60.74;100213.06;4225730;28;20246;-66
2023/07/05 03:58:49;;;;;;;27.07;13.60;;;;;;;17.78;60.78;100207.06;4211499;28;21149;-67
2023/07/05 04:01:24;;;;;;;27.10;13.07;;;;;;;17.91;59.94;100198.94;4206167;28;20238;-67
2023/07/05 04:03:53;;;;;;;30.13;13.33;;;;;;;18.07;59.77;100205.16;4214084;28;20964;-69
2023/07/05 04:06:22;;;;;;;29.13;13.30;;;;;;;18.10;60.86;100200.13;4208281;28;20293;-69
2023/07/05 04:08:48;;;;;;;30.33;12.97;;;;;;;18.25;60.15;100194.50;4204951;28;21168;-67
2023/07/05 04:11:15;;;;;;;27.87;13.27;;;;;;;18.46;59.32;100196.25;4214229;28;25184;-67
2023/07/05 04:13:44;;;;;;;28.47;13.33;;;;;;;18.53;58.99;100204.53;4218423;28;20846;-66
2023/07/05 04:16:16;;;;;;;35.27;13.23;;;;;;;18.53;58.42;100205.34;4212537;28;23644;-65
2023/07/05 04:18:44;;;;;;;28.73;12.27;;;;;;;18.67;57.90;100209.00;4219372;28;20237;-70
2023/07/05 04:21:12;;;;;;;27.80;11.73;;;;;;;18.91;57.56;100206.72;4210160;28;22729;-66
2023/07/05 04:23:40;;;;;;;28.53;12.00;;;;;;;19.04;57.04;100211.41;4216990;28;20292;-66
2023/07/05 04:26:08;;;;;;;28.40;11.83;;;;;;;19.19;56.79;100210.38;4213906;28;20856;-68
2023/07/05 04:28:35;;;;;;;30.27;12.17;;;;;;;19.37;56.61;100207.84;4218023;28;20239;-67
2023/07/05 04:31:02;;;;;;;38.50;14.90;;;;;;;19.46;54.97;100211.22;4202399;28;20619;-67
2023/07/05 04:33:29;;;;;;;26.20;12.77;;;;;;;19.55;55.30;100211.88;4220314;28;20234;-66
2023/07/05 04:36:00;;;;;;;26.30;10.90;;;;;;;19.65;54.43;100215.00;4219068;28;20383;-67
2023/07/05 04:38:27;;;;;;;24.93;11.03;;;;;;;19.66;54.96;100210.38;4220342;28;20708;-67
2023/07/05 04:40:55;;;;;;;22.37;10.10;;;;;;;19.85;53.96;100208.69;4200476;28;26195;-66
2023/07/05 04:43:22;;;;;;;29.10;10.30;;;;;;;20.00;53.06;100213.91;4215749;28;20237;-65
2023/07/05 04:45:53;;;;;;;25.03;10.60;;;;;;;19.97;53.44;100214.38;4223122;28;20282;-66
2023/07/05 04:48:21;;;;;;;20.60;10.53;;;;;;;19.95;53.59;100215.44;4220650;28;20459;-66
2023/07/05 04:50:50;;;;;;;24.97;10.07;;;;;;;19.89;54.31;100216.28;4213811;28;20640;-66
2023/07/05 04:53:17;;;;;;;23.63;10.20;;;;;;;19.92;52.92;100215.00;4207887;28;20393;-66
2023/07/05 04:55:47;;;;;;;21.43;9.47;;;;;;;20.17;52.44;100217.03;4224430;28;20431;-66
2023/07/05 04:58:14;;;;;;;19.57;9.60;;;;;;;20.12;51.62;100223.22;4188182;28;22414;-67
2023/07/05 05:00:46;;;;;;;22.03;10.07;;;;;;;20.35;51.72;100211.69;4211781;28;20239;-69
2023/07/05 05:03:13;;;;;;;24.60;9.50;;;;;;;20.56;51.31;100210.56;4219091;28;23063;-66
2023/07/05 05:05:42;;;;;;;25.03;9.60;;;;;;;20.72;50.80;100203.72;4214637;28;20225;-66
2023/07/05 05:08:09;;;;;;;22.00;9.40;;;;;;;20.84;51.03;100206.63;4217537;28;22799;-67
2023/07/05 05:10:37;;;;;;;19.73;8.63;;;;;;;20.89;50.42;100214.22;4217368;28;21863;-69
2023/07/05 05:13:05;;;;;;;19.30;8.83;;;;;;;20.77;49.93;100208.56;4212587;28;20620;-68
2023/07/05 05:15:39;;;;;;;19.43;7.77;;;;;;;20.78;48.21;100218.50;4203285;28;21807;-69
2023/07/05 05:18:07;;;;;;;22.37;7.43;;;;;;;20.94;49.00;100214.38;4211220;28;20286;-69
2023/07/05 05:20:34;;;;;;;22.17;8.80;;;;;;;21.12;47.91;100212.78;4208688;28;21820;-68
2023/07/05 05:23:01;;;;;;;20.50;7.40;;;;;;;21.32;46.33;100207.97;4215082;28;20299;-68
2023/07/05 05:25:27;;;;;;;17.93;7.23;;;;;;;21.55;46.18;100213.94;4227208;28;21197;-67
2023/07/05 05:27:54;;;;;;;21.60;7.87;;;;;;;21.62;47.17;100221.09;4194734;28;20809;-70
2023/07/05 05:30:21;;;;;;;21.40;7.10;;;;;;;22.00;45.78;100220.06;4216471;28;20609;-67
2023/07/05 05:32:48;;;;;;;13.67;7.20;;;;;;;22.12;45.47;100222.91;4201311;28;20236;-69
2023/07/05 05:35:15;;;;;;;19.57;7.60;;;;;;;22.66;44.60;100216.78;4213647;28;20228;-71
2023/07/05 05:37:42;;;;;;;14.97;6.63;;;;;;;22.50;44.67;100215.50;4230271;28;20261;-67
2023/07/05 05:40:10;;;;;;;18.88;7.43;;;;;;;23.22;43.31;100224.91;4206038;28;20241;-67
2023/07/05 05:42:37;;;;;;;14.13;6.60;;;;;;;23.49;42.19;100230.00;4226383;28;20306;-68
2023/07/05 05:45:05;;;;;;;18.63;6.80;;;;;;;24.29;41.41;100227.72;4214050;28;20270;-68
2023/07/05 05:47:31;;;;;;;18.87;7.17;;;;;;;24.37;40.48;100230.09;4200586;28;20312;-69
2023/07/05 05:49:58;;;;;;;14.73;7.22;;;;;;;24.80;40.03;100231.53;4220884;28;20240;-69
2023/07/05 05:52:24;;;;;;;19.17;6.47;;;;;;;25.24;39.08;100221.78;4223163;28;21637;-69
2023/07/05 05:54:51;;;;;;;14.43;6.43;;;;;;;25.82;37.52;100219.72;4212672;28;20246;-67
2023/07/05 05:57:18;;;;;;;13.37;6.30;;;;;;;25.73;37.07;100219.31;4207219;28;20248;-70
2023/07/05 05:59:45;;;;;;;19.58;6.55;;;;;;;25.84;36.62;100219.44;4212768;28;22205;-67
2023/07/05 06:02:12;;;;;;;16.13;7.20;;;;;;;25.72;37.52;100228.72;4208360;28;20244;-69
2023/07/05 06:04:39;;;;;;;16.08;7.13;;;;;;;25.88;36.93;100221.47;4212430;28;22548;-70
2023/07/05 06:07:05;;;;;;;15.73;7.00;;;;;;;26.13;36.59;100224.91;4212997;28;22095;-71
2023/07/05 06:09:39;;;;;;;15.18;7.70;;;;;;;26.44;36.00;100228.09;4204557;28;20346;-71
2023/07/05 06:12:06;;;;;;;20.05;7.05;;;;;;;26.49;36.11;100223.41;4211061;28;20507;-69
2023/07/05 06:14:32;;;;;;;20.42;7.15;;;;;;;26.47;35.87;100227.56;4210958;28;20641;-66
2023/07/05 06:16:59;;;;;;;17.13;7.22;;;;;;;27.46;33.81;100217.22;4198086;28;20473;-65
2023/07/05 06:19:26;;;;;;;22.00;7.40;;;;;;;27.30;33.87;100224.56;4207940;28;20228;-65
2023/07/05 06:21:52;;;;;;;15.07;7.30;;;;;;;27.57;33.74;100226.47;4207997;28;20239;-65
2023/07/05 06:24:20;;;;;;;22.20;7.65;;;;;;;28.13;32.39;100231.63;4220617;28;20607;-65
2023/07/05 06:26:46;;;;;;;19.80;7.18;;;;;;;28.19;32.20;100226.91;4206559;28;20226;-68
2023/07/05 06:29:13;;;;;;;15.20;6.20;;;;;;;28.67;30.75;100229.59;4192294;28;21352;-65
2023/07/05 06:31:40;;;;;;;14.18;6.25;;;;;;;28.35;31.29;100230.63;4203376;28;20854;-66
2023/07/05 06:34:06;;;;;;;17.83;7.15;;;;;;;28.76;30.54;100225.19;4206272;28;20319;-66
2023/07/05 06:36:33;;;;;;;14.32;7.55;;;;;;;29.12;30.58;100218.03;4208408;28;20241;-68
2023/07/05 06:38:59;;;;;;;23.15;7.60;;;;;;;29.53;30.27;100221.69;4199861;28;20268;-67
2023/07/05 06:41:26;;;;;;;17.25;7.50;;;;;;;29.29;29.96;100223.34;4220599;28;20243;-68
2023/07/05 06:43:53;;;;;;;14.68;6.60;;;;;;;29.29;30.04;100212.19;4212491;28;20691;-66
2023/07/05 06:46:20;;;;;;;12.38;6.95;;;;;;;28.86;30.41;100220.78;4209938;28;22916;-64
2023/07/05 06:48:48;;;;;;;14.13;6.97;;;;;;;28.94;30.39;100214.66;4208688;28;20318;-67
2023/07/05 06:51:15;;;;;;;19.80;7.47;;;;;;;28.40;31.66;100227.84;4210147;28;20334;-69
2023/07/05 06:53:42;;;;;;;15.52;7.18;;;;;;;29.44;29.71;100214.16;4214829;28;20232;-66
2023/07/05 06:56:16;;;;;;;19.90;7.22;;;;;;;30.03;29.44;100215.50;4219613;28;20248;-68
2023/07/05 06:58:43;;;;;;;16.55;7.20;;;;;;;29.66;29.37;100213.88;4212407;28;22765;-68
2023/07/05 07:01:10;;;;;;;26.27;8.20;;;;;;;30.11;28.95;100209.34;4209515;28;20467;-69
2023/07/05 07:03:39;;;;;;;17.42;7.60;;;;;;;30.61;28.64;100212.22;4212995;28;20243;-65
2023/07/05 07:06:06;;;;;;;16.80;7.72;;;;;;;30.42;28.40;100217.59;4241324;28;20282;-68
2023/07/05 07:08:34;;;;;;;17.75;7.53;;;;;;;30.44;29.26;100220.91;4213999;28;20236;-65
2023/07/05 07:11:04;;;;;;;25.27;8.32;;;;;;;29.48;29.40;100218.91;4220750;28;20309;-66
2023/07/05 07:13:32;;;;;;;22.77;8.55;;;;;;;29.68;28.78;100218.06;4215498;28;20321;-67
2023/07/05 07:16:04;;;;;;;22.02;8.30;;;;;;;30.03;27.86;100215.50;4204556;28;20320;-69
2023/07/05 07:18:31;;;;;;;21.60;8.18;;;;;;;29.21;29.57;100208.00;4208415;28;20310;-65
2023/07/05 07:20:59;;;;;;;18.90;9.05;;;;;;;29.09;29.69;100213.84;4200727;28;20315;-66
2023/07/05 07:23:26;;;;;;;20.73;9.15;;;;;;;29.25;29.68;100214.69;4212734;28;20238;-68
2023/07/05 07:26:03;;;;;;;23.83;9.15;;;;;;;29.26;30.03;100216.38;4206473;28;21112;-67
2023/07/05 07:28:29;;;;;;;19.23;9.48;;;;;;;29.91;29.52;100214.94;4213458;28;20298;-68
2023/07/05 07:30:57;;;;;;;19.20;9.93;;;;;;;29.19;30.13;100215.81;4214032;28;20244;-67
2023/07/05 07:33:24;;;;;;;18.52;10.60;;;;;;;29.36;30.06;100213.59;4198401;28;21131;-67
2023/07/05 07:35:50;;;;;;;20.88;10.70;;;;;;;29.66;29.68;100211.09;4213333;28;20255;-68
2023/07/05 07:38:17;;;;;;;20.42;10.20;;;;;;;29.28;29.87;100208.53;4197519;28;20360;-68
2023/07/05 07:40:43;;;;;;;26.92;10.63;;;;;;;28.05;31.78;100209.84;4215268;28;20273;-69
2023/07/05 07:43:10;;;;;;;20.33;9.93;;;;;;;28.96;31.31;100215.22;4201774;28;20298;-70
2023/07/05 07:45:37;;;;;;;16.75;10.07;;;;;;;29.54;30.45;100211.38;4209302;28;20502;-66
2023/07/05 07:48:04;;;;;;;19.73;10.18;;;;;;;29.21;30.30;100206.06;4219780;28;20242;-68
2023/07/05 07:50:31;;;;;;;22.42;10.57;;;;;;;29.11;30.48;100203.25;4223909;28;20419;-66
2023/07/05 07:52:57;;;;;;;21.33;10.03;;;;;;;28.99;30.41;100208.25;4211033;28;21750;-51
2023/07/05 07:55:24;;;;;;;17.73;10.43;;;;;;;28.82;30.91;100214.06;4206846;28;20239;-68
2023/07/05 07:57:51;;;;;;;23.27;10.90;;;;;;;28.07;32.07;100217.94;4202674;28;20719;-70
2023/07/05 08:00:18;;;;;;;21.20;10.80;;;;;;;29.08;30.69;100212.19;4208053;28;20234;-70
2023/07/05 08:02:45;;;;;;;25.92;11.85;;;;;;;28.24;32.28;100212.19;4233254;28;20480;-68
2023/07/05 08:05:14;;;;;;;20.63;10.50;;;;;;;28.62;30.88;100213.72;4216888;28;20250;-70
2023/07/05 08:07:41;;;;;;;19.00;10.18;;;;;;;28.57;30.50;100212.88;4223283;28;20234;-68
2023/07/05 08:10:08;;;;;;;26.77;11.32;;;;;;;28.49;30.43;100213.41;4214317;28;23447;-66
2023/07/05 08:12:35;;;;;;;24.77;11.45;;;;;;;27.97;31.25;100211.16;4224329;28;20238;-68
2023/07/05 08:15:02;;;;;;;20.17;10.90;;;;;;;28.10;30.99;100207.09;4211841;28;21080;-66
2023/07/05 08:17:29;;;;;;;21.00;10.90;;;;;;;28.90;30.10;100203.22;4210547;28;22047;-67
2023/07/05 08:19:56;;;;;;;24.13;10.73;;;;;;;28.74;31.26;100194.00;4203515;28;20887;-67
2023/07/05 08:22:22;;;;;;;21.45;10.38;;;;;;;29.20;30.59;100193.22;4225040;28;20239;-67
2023/07/05 08:24:50;;;;;;;21.65;11.02;;;;;;;29.38;29.96;100189.06;4213352;28;20239;-69
2023/07/05 08:27:17;;;;;;;22.38;11.65;;;;;;;28.90;29.44;100192.09;4220205;28;20368;-68
2023/07/05 08:29:43;;;;;;;21.67;11.65;;;;;;;28.91;29.41;100185.41;4226755;28;20329;-67
2023/07/05 08:32:10;;;;;;;20.42;11.38;;;;;;;28.95;29.76;100188.47;4217055;28;22068;-67
2023/07/05 08:34:36;;;;;;;21.48;11.88;;;;;;;28.99;28.60;100185.97;4220163;28;20239;-67
2023/07/05 08:37:03;;;;;;;19.33;11.52;;;;;;;29.21;28.23;100183.75;4218581;28;20725;-68
2023/07/05 08:39:30;;;;;;;25.20;12.55;;;;;;;29.51;27.93;100172.88;4219427;28;20232;-66
2023/07/05 08:42:00;;;;;;;28.73;12.00;;;;;;;29.59;27.77;100183.47;4212277;28;20539;-67
2023/07/05 08:44:29;;;;;;;19.70;11.13;;;;;;;29.75;27.75;100181.50;4217444;28;20501;-67
2023/07/05 08:47:04;;;;;;;20.80;12.30;;;;;;;29.74;28.05;100177.03;4218231;28;20318;-69
2023/07/05 08:49:36;;;;;;;23.73;12.43;;;;;;;29.43;28.16;100173.44;4218177;28;22509;-68
2023/07/05 08:52:04;;;;;;;21.73;12.40;;;;;;;29.38;28.13;100171.53;4210686;28;20258;-67
2023/07/05 08:54:32;;;;;;;24.98;12.27;;;;;;;28.86;28.59;100168.66;4207609;28;20299;-66
2023/07/05 08:57:05;;;;;;;21.83;12.20;;;;;;;29.30;29.25;100172.06;4206384;28;23040;-66
2023/07/05 08:59:45;;;;;;;20.85;12.35;;;;;;;29.68;27.55;100158.66;4213994;28;20257;-67
2023/07/05 09:02:15;;;;;;;21.65;12.75;;;;;;;28.73;29.61;100152.50;4210077;28;22346;-67
2023/07/05 09:04:47;;;;;;;25.08;11.95;;;;;;;28.37;29.43;100169.09;4203409;28;20245;-67
2023/07/05 09:07:46;;;;;;;23.10;12.55;;;;;;;28.44;29.99;100161.31;4209535;28;20768;-68
2023/07/05 09:10:22;;;;;;;20.08;12.15;;;;;;;28.18;29.62;100152.03;4212541;28;20268;-68
2023/07/05 09:13:12;;;;;;;19.83;12.88;;;;;;;28.30;29.73;100163.75;4211862;28;20288;-67
2023/07/05 09:15:45;;;;;;;25.52;12.48;;;;;;;28.53;29.18;100150.47;4205270;28;20232;-68
2023/07/05 09:18:43;;;;;;;23.10;11.85;;;;;;;28.96;29.04;100140.00;4213186;28;20234;-66
2023/07/05 09:21:32;;;;;;;25.95;12.85;;;;;;;29.32;27.94;100130.78;4235947;28;20603;-68
2023/07/05 09:24:20;;;;;;;20.88;12.77;;;;;;;29.24;28.03;100135.78;4212268;28;20232;-67
2023/07/05 09:26:51;;;;;;;25.95;13.30;;;;;;;29.31;28.53;100143.91;4208132;28;20230;-70
2023/07/05 09:29:30;;;;;;;20.33;13.13;;;;;;;29.52;27.93;100141.09;4225259;28;20224;-67
2023/07/05 09:32:00;;;;;;;24.30;13.60;;;;;;;29.37;28.94;100140.00;4202889;28;20240;-67
2023/07/05 09:34:28;;;;;;;25.92;13.68;;;;;;;29.35;28.28;100142.22;4211137;28;20306;-66
2023/07/05 09:36:55;;;;;;;25.20;14.23;;;;;;;28.83;28.95;100135.81;4223186;28;21098;-67
2023/07/05 09:39:34;;;;;;;28.67;13.27;;;;;;;29.01;29.52;100140.00;4234037;28;25011;-67
2023/07/05 09:42:02;;;;;;;22.02;12.95;;;;;;;29.20;29.28;100134.69;4213405;28;20247;-68
2023/07/05 09:44:31;;;;;;;25.25;13.32;;;;;;;29.61;28.30;100125.47;4219609;28;20231;-66
2023/07/05 09:46:58;;;;;;;25.83;13.07;;;;;;;29.51;29.56;100137.47;4205755;28;20231;-67
2023/07/05 09:49:25;;;;;;;27.05;13.20;;;;;;;29.59;29.27;100135.22;4209788;28;20224;-68
2023/07/05 09:51:54;;;;;;;27.80;13.32;;;;;;;29.66;28.96;100131.00;4208941;28;20230;-67
2023/07/05 09:54:24;;;;;;;26.92;13.73;;;;;;;29.28;29.43;100124.91;4207809;28;20855;-68
2023/07/05 09:57:04;;;;;;;25.45;13.45;;;;;;;29.24;29.72;100126.59;4215222;28;20235;-68
2023/07/05 09:59:32;;;;;;;22.00;12.93;;;;;;;29.53;28.83;100128.81;4223185;28;20644;-66
2023/07/05 10:02:12;;;;;;;21.27;13.32;;;;;;;29.69;29.58;100124.88;4215172;28;20233;-67
2023/07/05 10:04:46;;;;;;;21.98;13.40;;;;;;;29.68;28.81;100131.56;4212612;28;20231;-68
2023/07/05 10:07:15;;;;;;;25.85;14.32;;;;;;;29.45;29.06;100126.59;4225566;28;20230;-66
2023/07/05 10:09:55;;;;;;;22.75;13.50;;;;;;;29.27;29.00;100128.00;4219751;28;20242;-66
2023/07/05 10:12:26;;;;;;;27.00;13.77;;;;;;;28.74;30.49;100116.00;4211494;28;22019;-67
2023/07/05 10:14:55;;;;;;;28.83;14.27;;;;;;;28.82;30.95;100116.56;4225231;28;20290;-67
2023/07/05 10:17:24;;;;;;;27.40;14.32;;;;;;;29.40;30.35;100110.72;4217245;28;20282;-66
2023/07/05 10:19:52;;;;;;;24.17;13.48;;;;;;;29.92;30.72;100103.06;4231981;28;20234;-67
2023/07/05 10:22:27;;;;;;;24.10;13.48;;;;;;;30.12;28.70;100099.34;4202049;28;20245;-67
2023/07/05 10:25:02;;;;;;;22.45;13.40;;;;;;;29.78;29.16;100108.38;4242863;28;20246;-67
2023/07/05 10:27:36;;;;;;;26.50;13.77;;;;;;;29.53;29.17;100114.88;4223949;28;21812;-65
2023/07/05 10:30:07;;;;;;;25.35;13.98;;;;;;;29.35;28.93;100119.91;4227751;28;21256;-69
2023/07/05 10:32:36;;;;;;;22.33;14.07;;;;;;;28.90;29.83;100116.00;4210439;28;21448;-67
2023/07/05 10:35:28;;;;;;;23.33;13.75;;;;;;;29.00;29.36;100098.47;4231811;28;20336;-68
2023/07/05 10:37:55;;;;;;;26.88;13.45;;;;;;;29.42;29.30;100097.34;4237725;28;20569;-68
2023/07/05 10:40:22;;;;;;;24.83;13.13;;;;;;;29.11;29.80;100085.38;4213162;28;20687;-66
2023/07/05 10:42:52;;;;;;;25.65;13.68;;;;;;;29.13;29.94;100092.34;4217786;28;20296;-67
2023/07/05 10:45:21;;;;;;;25.63;14.20;;;;;;;29.39;29.57;100092.31;4218055;28;20786;-67
2023/07/05 10:47:52;;;;;;;21.33;13.55;;;;;;;29.76;28.93;100091.09;4212933;28;20538;-68
2023/07/05 10:50:31;;;;;;;20.88;13.90;;;;;;;29.67;28.54;100093.63;4214128;28;20257;-67
2023/07/05 10:53:01;;;;;;;21.33;13.15;;;;;;;29.67;28.72;100082.47;4223280;28;23534;-65
2023/07/05 10:55:39;;;;;;;21.42;13.65;;;;;;;29.24;29.60;100080.03;4187648;28;20297;-66
2023/07/05 10:58:11;;;;;;;30.88;13.45;;;;;;;29.66;28.78;100085.56;4217728;28;20234;-67
2023/07/05 11:00:45;;;;;;;24.75;13.32;;;;;;;29.25;28.93;100086.47;4242765;28;20292;-67
2023/07/05 11:03:21;;;;;;;24.48;14.32;;;;;;;29.55;28.93;100084.75;4215422;28;20400;-68
2023/07/05 11:05:50;;;;;;;21.08;14.00;;;;;;;30.02;28.22;100086.25;4231154;28;22066;-66
2023/07/05 11:08:20;;;;;;;23.80;13.48;;;;;;;30.32;27.19;100064.91;4203683;28;21776;-68
2023/07/05 11:10:48;;;;;;;21.38;13.25;;;;;;;30.41;27.41;100065.13;4194945;28;20300;-68
2023/07/05 11:13:17;;;;;;;26.52;13.32;;;;;;;30.23;27.99;100063.84;4211773;28;20563;-67
2023/07/05 11:15:45;;;;;;;35.10;13.65;;;;;;;30.24;27.88;100075.81;4219307;28;20304;-68
2023/07/05 11:18:18;;;;;;;27.75;13.70;;;;;;;30.39;27.49;100063.75;4208253;28;20231;-67
2023/07/05 11:20:50;;;;;;;21.58;12.50;;;;;;;30.16;28.78;100066.13;4217091;28;20418;-67
2023/07/05 11:23:43;;;;;;;19.88;12.57;;;;;;;30.12;27.72;100056.63;4216694;28;20240;-66